Time;durP1;ratioP1;P1;durP2;ratioP2;P2;SDS_P1;SDS_P2;PMS_P1;PMS_P2;Temp;Humidity;BMP_temperature;BMP_pressure;BME280_temperature;BME280_humidity;BME280_pressure;Samples;Min_cycle;Max_cycle;Signal;HPM_P1;HPM_P2
2022/04/22 00:02:22;;;;;;;0.43;0.43;;;10.30;99.90;;;;;;4430258;32;20245;-68
2022/04/22 00:04:48;;;;;;;0.52;0.52;;;10.20;99.90;;;;;;4428139;32;20101;-68
2022/04/22 00:07:13;;;;;;;0.62;0.62;;;10.20;99.90;;;;;;4429034;32;20476;-67
2022/04/22 00:09:39;;;;;;;0.40;0.40;;;10.10;99.90;;;;;;4429964;32;20089;-67
2022/04/22 00:12:05;;;;;;;0.62;0.62;;;10.00;99.90;;;;;;4430957;32;20140;-68
2022/04/22 00:14:31;;;;;;;0.30;0.30;;;10.00;99.90;;;;;;4427714;32;20446;-68
2022/04/22 00:16:56;;;;;;;0.40;0.40;;;10.00;99.90;;;;;;4431081;32;20097;-69
2022/04/22 00:19:22;;;;;;;11.20;1.37;;;9.90;99.90;;;;;;4430503;32;20069;-69
2022/04/22 00:21:47;;;;;;;1.50;0.95;;;9.90;99.90;;;;;;4428904;32;20077;-68
2022/04/22 00:24:14;;;;;;;0.50;0.50;;;9.90;99.90;;;;;;4430877;32;20097;-69
2022/04/22 00:26:40;;;;;;;0.80;0.80;;;9.80;99.90;;;;;;4429263;32;20073;-69
2022/04/22 00:29:05;;;;;;;0.35;0.35;;;9.80;99.90;;;;;;4429591;32;20139;-68
2022/04/22 00:31:31;;;;;;;0.40;0.40;;;9.70;99.90;;;;;;4425652;32;20351;-67
2022/04/22 00:33:57;;;;;;;0.30;0.30;;;9.70;99.90;;;;;;4428710;32;20077;-68
2022/04/22 00:36:23;;;;;;;0.57;0.52;;;9.60;99.90;;;;;;4428336;32;20072;-68
2022/04/22 00:38:48;;;;;;;0.30;0.30;;;9.60;99.90;;;;;;4429164;32;20127;-67
2022/04/22 00:41:14;;;;;;;0.30;0.30;;;9.60;99.90;;;;;;4426605;32;20061;-67
2022/04/22 00:43:42;;;;;;;0.50;0.50;;;9.50;99.90;;;;;;4428583;32;20628;-67
2022/04/22 00:46:07;;;;;;;0.50;0.50;;;9.40;99.90;;;;;;4427513;32;20524;-68
2022/04/22 00:48:33;;;;;;;9.40;1.20;;;9.40;99.90;;;;;;4431538;32;20098;-68
2022/04/22 00:50:59;;;;;;;0.40;0.40;;;9.40;99.90;;;;;;4429388;32;20072;-67
2022/04/22 00:53:25;;;;;;;0.57;0.50;;;9.30;99.90;;;;;;4430567;32;20123;-68
2022/04/22 00:55:51;;;;;;;0.37;0.37;;;9.30;99.90;;;;;;4427533;32;20077;-68
2022/04/22 00:58:16;;;;;;;0.32;0.32;;;9.20;99.90;;;;;;4428679;32;20529;-68
2022/04/22 01:00:42;;;;;;;1.05;0.93;;;9.30;99.90;;;;;;4430501;32;20058;-67
2022/04/22 01:03:08;;;;;;;0.88;0.60;;;9.20;99.90;;;;;;4427449;32;20608;-68
2022/04/22 01:09:51;;;;;;;0.30;0.30;;;9.20;99.90;;;;;;4415464;32;20133;-68
2022/04/22 01:11:06;;;;;;;0.43;0.43;;;9.10;99.90;;;;;;4424088;32;20541;-67
2022/04/22 01:13:32;;;;;;;0.30;0.30;;;9.00;99.90;;;;;;4428278;32;20120;-67
2022/04/22 01:15:57;;;;;;;0.50;0.50;;;8.90;99.90;;;;;;4423884;32;20065;-68
2022/04/22 01:18:23;;;;;;;1.40;0.70;;;8.90;99.90;;;;;;4432775;32;20065;-67
2022/04/22 01:20:48;;;;;;;3.30;1.25;;;8.90;99.90;;;;;;4428700;32;20565;-67
2022/04/22 01:23:14;;;;;;;0.98;0.50;;;8.80;99.90;;;;;;4426151;32;20069;-68
2022/04/22 01:25:40;;;;;;;0.40;0.40;;;8.90;99.90;;;;;;4428895;32;20112;-68
2022/04/22 01:28:06;;;;;;;0.45;0.45;;;8.70;99.90;;;;;;4428670;32;20070;-68
2022/04/22 01:30:32;;;;;;;0.45;0.45;;;8.50;99.90;;;;;;4429681;32;20085;-68
2022/04/22 01:32:57;;;;;;;1.30;0.95;;;8.50;99.90;;;;;;4428640;32;20105;-68
2022/04/22 01:35:24;;;;;;;0.65;0.65;;;8.60;99.90;;;;;;4426513;32;20069;-68
2022/04/22 01:37:50;;;;;;;8.55;1.37;;;8.60;99.90;;;;;;4429549;32;20101;-68
2022/04/22 01:40:16;;;;;;;0.90;0.62;;;8.60;99.90;;;;;;4428216;32;20127;-68
2022/04/22 01:42:42;;;;;;;0.62;0.50;;;8.50;99.90;;;;;;4430110;32;20563;-68
2022/04/22 01:45:09;;;;;;;0.50;0.50;;;8.40;99.90;;;;;;4431682;32;20077;-68
2022/04/22 01:47:35;;;;;;;1.27;1.17;;;8.40;99.90;;;;;;4430581;32;20521;-68
2022/04/22 01:50:01;;;;;;;0.88;0.68;;;8.30;99.90;;;;;;4432870;32;20184;-66
2022/04/22 01:52:27;;;;;;;0.65;0.65;;;8.40;99.90;;;;;;4430747;32;20084;-66
2022/04/22 01:54:54;;;;;;;2.08;0.73;;;8.30;99.90;;;;;;4430707;32;20065;-68
2022/04/22 01:57:20;;;;;;;0.70;0.70;;;8.30;99.90;;;;;;4433534;32;20418;-68
2022/04/22 01:59:46;;;;;;;0.50;0.50;;;8.20;99.90;;;;;;4433838;32;20077;-68
2022/04/22 02:02:12;;;;;;;0.35;0.35;;;8.20;99.90;;;;;;4428937;32;20825;-68
2022/04/22 02:04:38;;;;;;;0.43;0.32;;;8.20;99.90;;;;;;4430838;32;20099;-68
2022/04/22 02:07:03;;;;;;;0.90;0.62;;;8.20;99.90;;;;;;4431777;32;20066;-68
2022/04/22 02:09:29;;;;;;;0.40;0.40;;;8.20;99.90;;;;;;4433608;32;20176;-69
2022/04/22 02:11:56;;;;;;;4.68;1.20;;;8.10;99.90;;;;;;4429312;32;20073;-69
2022/04/22 02:14:22;;;;;;;2.35;0.95;;;7.90;99.90;;;;;;4429670;32;20069;-68
2022/04/22 02:16:47;;;;;;;0.62;0.62;;;7.90;99.90;;;;;;4429322;32;20544;-68
2022/04/22 02:19:13;;;;;;;0.40;0.40;;;8.00;99.90;;;;;;4430781;32;20094;-67
2022/04/22 02:21:39;;;;;;;0.73;0.70;;;8.00;99.90;;;;;;4429057;32;20567;-67
2022/04/22 02:24:05;;;;;;;0.40;0.40;;;8.00;99.90;;;;;;4427888;32;20119;-69
2022/04/22 02:28:31;;;;;;;0.40;0.40;;;8.00;99.90;;;;;;4434827;32;20084;-69
2022/04/22 02:29:17;;;;;;;1.52;1.10;;;7.90;99.90;;;;;;4417219;32;20121;-68
2022/04/22 02:31:43;;;;;;;0.40;0.40;;;7.90;99.90;;;;;;4427418;32;20068;-68
2022/04/22 02:34:09;;;;;;;0.75;0.52;;;8.00;99.90;;;;;;4431048;32;20094;-69
2022/04/22 02:36:34;;;;;;;4.25;1.02;;;8.00;99.90;;;;;;4429745;32;20089;-68
2022/04/22 02:39:00;;;;;;;0.55;0.55;;;8.10;99.90;;;;;;4428980;32;20085;-68
2022/04/22 02:45:41;;;;;;;0.60;0.60;;;8.00;99.90;;;;;;4417193;32;20068;-68
2022/04/22 02:46:56;;;;;;;0.50;0.50;;;7.90;99.90;;;;;;4419566;32;20093;-68
2022/04/22 02:49:21;;;;;;;0.70;0.70;;;8.00;99.90;;;;;;4429272;32;20065;-68
2022/04/22 02:51:47;;;;;;;5.75;0.70;;;8.00;99.90;;;;;;4431274;32;20116;-69
2022/04/22 02:54:12;;;;;;;1.55;1.35;;;8.00;99.90;;;;;;4429506;32;20129;-68
2022/04/22 02:56:38;;;;;;;2.95;0.60;;;7.90;99.90;;;;;;4430772;32;20399;-68
2022/04/22 02:59:05;;;;;;;0.55;0.55;;;8.00;99.90;;;;;;4431436;32;20074;-68
2022/04/22 03:01:30;;;;;;;0.70;0.70;;;8.00;99.90;;;;;;4432977;32;20101;-68
2022/04/22 03:03:56;;;;;;;0.85;0.82;;;8.00;99.90;;;;;;4431516;32;20592;-68
2022/04/22 03:06:24;;;;;;;1.73;0.90;;;8.00;99.90;;;;;;4431500;32;20081;-68
2022/04/22 03:08:50;;;;;;;1.67;0.90;;;8.00;99.90;;;;;;4429193;32;20110;-68
2022/04/22 03:11:20;;;;;;;0.55;0.55;;;7.90;99.90;;;;;;4429423;32;20069;-68
2022/04/22 03:13:45;;;;;;;11.40;0.45;;;8.00;99.90;;;;;;4430284;32;20088;-68
2022/04/22 03:16:11;;;;;;;1.40;0.98;;;8.00;99.90;;;;;;4429013;32;20151;-68
2022/04/22 03:18:37;;;;;;;0.40;0.40;;;7.90;99.90;;;;;;4432244;32;20169;-68
2022/04/22 03:21:02;;;;;;;2.50;1.25;;;7.90;99.90;;;;;;4433043;32;20109;-69
2022/04/22 03:23:28;;;;;;;1.20;0.95;;;7.80;99.90;;;;;;4430375;32;20151;-68
2022/04/22 03:25:54;;;;;;;2.33;1.37;;;7.80;99.90;;;;;;4431087;32;20136;-68
2022/04/22 03:28:20;;;;;;;0.50;0.50;;;7.90;99.90;;;;;;4431435;32;20069;-68
2022/04/22 03:30:46;;;;;;;1.65;0.60;;;7.90;99.90;;;;;;4429666;32;20471;-68
2022/04/22 03:33:11;;;;;;;0.88;0.88;;;7.90;99.90;;;;;;4431786;32;20127;-68
2022/04/22 03:35:37;;;;;;;1.12;0.52;;;7.90;99.90;;;;;;4428900;32;20076;-68
2022/04/22 03:38:02;;;;;;;3.40;0.90;;;7.90;99.90;;;;;;4430309;32;20446;-68
2022/04/22 03:40:28;;;;;;;1.40;1.27;;;8.00;99.90;;;;;;4429867;32;20094;-68
2022/04/22 03:42:54;;;;;;;0.70;0.70;;;7.90;99.90;;;;;;4429126;32;20481;-68
2022/04/22 03:45:21;;;;;;;1.30;0.80;;;7.90;99.90;;;;;;4430534;32;20065;-68
2022/04/22 03:47:47;;;;;;;1.35;1.25;;;7.90;99.90;;;;;;4428696;32;20110;-68
2022/04/22 03:50:13;;;;;;;0.40;0.40;;;8.00;99.90;;;;;;4432155;32;20582;-68
2022/04/22 03:52:38;;;;;;;0.43;0.43;;;8.00;99.90;;;;;;4428180;32;20064;-68
2022/04/22 03:55:04;;;;;;;0.85;0.85;;;7.80;99.90;;;;;;4432066;32;20065;-68
2022/04/22 03:58:29;;;;;;;0.50;0.50;;;7.80;99.90;;;;;;4433596;32;20132;-68
2022/04/22 04:00:15;;;;;;;2.50;0.77;;;7.90;99.90;;;;;;4417483;32;20110;-68
2022/04/22 04:02:40;;;;;;;0.52;0.52;;;7.90;99.90;;;;;;4431377;32;20071;-68
2022/04/22 04:05:06;;;;;;;0.40;0.40;;;7.90;99.90;;;;;;4428166;32;20077;-68
2022/04/22 04:07:32;;;;;;;0.68;0.68;;;7.90;99.90;;;;;;4429811;32;20076;-68
2022/04/22 04:16:00;;;;;;;4.25;0.95;;;7.90;99.90;;;;;;4421869;32;20076;-68
2022/04/22 04:18:14;;;;;;;0.22;0.22;;;7.70;99.90;;;;;;4429903;32;20481;-68
2022/04/22 04:23:25;;;;;;;0.60;0.60;;;7.80;99.90;;;;;;4423032;32;20434;-68
2022/04/22 04:25:51;;;;;;;0.30;0.30;;;7.90;99.90;;;;;;4428641;32;20084;-68
2022/04/22 04:28:17;;;;;;;0.60;0.60;;;7.90;99.90;;;;;;4429778;32;20724;-68
2022/04/22 04:30:44;;;;;;;0.40;0.40;;;7.90;99.90;;;;;;4432312;32;20085;-68
2022/04/22 04:33:10;;;;;;;0.43;0.43;;;7.80;99.90;;;;;;4431683;32;20090;-68
2022/04/22 04:35:37;;;;;;;0.73;0.73;;;7.90;99.90;;;;;;4429558;32;20064;-68
2022/04/22 04:38:02;;;;;;;0.80;0.80;;;7.90;99.90;;;;;;4427157;32;20146;-68
2022/04/22 04:40:28;;;;;;;1.95;1.05;;;7.80;99.90;;;;;;4432918;32;20109;-68
2022/04/22 04:42:53;;;;;;;1.17;0.93;;;7.90;99.90;;;;;;4430466;32;20084;-68
2022/04/22 04:45:20;;;;;;;10.15;1.35;;;7.90;99.90;;;;;;4430362;32;20715;-68
2022/04/22 04:47:46;;;;;;;0.75;0.75;;;7.80;99.90;;;;;;4430545;32;20115;-68
2022/04/22 04:50:12;;;;;;;0.57;0.57;;;7.80;99.90;;;;;;4431928;32;20579;-69
2022/04/22 04:52:39;;;;;;;0.40;0.40;;;7.80;99.90;;;;;;4428683;32;20082;-68
2022/04/22 04:55:06;;;;;;;2.10;1.62;;;7.60;99.90;;;;;;4428204;32;20097;-68
2022/04/22 04:57:32;;;;;;;0.40;0.40;;;7.60;99.90;;;;;;4430344;32;20077;-68
2022/04/22 04:59:57;;;;;;;0.60;0.60;;;7.60;99.90;;;;;;4428515;32;20117;-68
2022/04/22 05:02:23;;;;;;;5.90;0.88;;;7.70;99.90;;;;;;4430321;32;20069;-68
2022/04/22 05:04:48;;;;;;;0.75;0.60;;;7.60;99.90;;;;;;4428859;32;20077;-69
2022/04/22 05:07:14;;;;;;;0.45;0.45;;;7.70;99.90;;;;;;4431944;32;20501;-68
2022/04/22 05:09:39;;;;;;;0.80;0.80;;;7.80;99.90;;;;;;4426432;32;20066;-68
2022/04/22 05:12:05;;;;;;;0.85;0.70;;;7.80;99.90;;;;;;4424316;32;20123;-68
2022/04/22 05:14:31;;;;;;;0.52;0.47;;;7.90;99.90;;;;;;4419238;32;20073;-68
2022/04/22 05:16:56;;;;;;;12.07;1.67;;;7.90;99.90;;;;;;4429186;32;20089;-68
2022/04/22 05:19:22;;;;;;;3.40;1.48;;;7.70;99.90;;;;;;4421905;32;20077;-68
2022/04/22 05:21:49;;;;;;;0.95;0.93;;;7.70;99.90;;;;;;4431013;32;20093;-68
2022/04/22 05:24:15;;;;;;;0.98;0.75;;;7.60;99.90;;;;;;4431075;32;20097;-68
2022/04/22 05:26:40;;;;;;;0.50;0.50;;;7.70;99.90;;;;;;4433652;32;20066;-68
2022/04/22 05:32:36;;;;;;;2.28;1.20;;;7.80;99.90;;;;;;4434075;32;20540;-68
2022/04/22 05:32:51;;;;;;;0.62;0.62;;;7.80;99.90;;;;;;4428763;32;20064;-68
2022/04/22 05:34:37;;;;;;;2.90;1.60;;;7.90;99.90;;;;;;4428065;32;20102;-68
2022/04/22 05:37:02;;;;;;;0.70;0.70;;;8.10;99.90;;;;;;4430910;32;20038;-68
2022/04/22 05:39:28;;;;;;;0.75;0.75;;;8.10;99.90;;;;;;4433040;32;20089;-68
2022/04/22 05:41:54;;;;;;;0.30;0.30;;;8.30;99.90;;;;;;4429104;32;20069;-68
2022/04/22 05:44:19;;;;;;;0.82;0.82;;;8.40;99.90;;;;;;4427686;32;20101;-68
2022/04/22 05:46:45;;;;;;;0.60;0.60;;;8.40;99.90;;;;;;4432630;32;20124;-69
2022/04/22 05:49:10;;;;;;;0.82;0.75;;;8.40;99.90;;;;;;4435530;32;20093;-68
2022/04/22 05:51:36;;;;;;;0.90;0.85;;;8.30;99.90;;;;;;4432193;32;20111;-68
2022/04/22 05:54:01;;;;;;;3.40;0.80;;;8.30;99.90;;;;;;4429082;32;20586;-68
2022/04/22 05:56:29;;;;;;;0.70;0.70;;;8.50;99.90;;;;;;4432770;32;20069;-69
2022/04/22 05:58:55;;;;;;;0.65;0.50;;;8.60;99.90;;;;;;4436340;32;20568;-69
2022/04/22 06:01:22;;;;;;;0.82;0.82;;;8.70;99.90;;;;;;4429291;32;20074;-68
2022/04/22 06:03:48;;;;;;;1.35;0.65;;;8.80;99.90;;;;;;4433434;32;20438;-68
2022/04/22 06:06:13;;;;;;;0.50;0.50;;;8.70;99.90;;;;;;4432886;32;20065;-69
2022/04/22 06:10:39;;;;;;;0.85;0.75;;;8.80;99.90;;;;;;4433872;32;20555;-68
2022/04/22 06:11:24;;;;;;;0.52;0.52;;;8.90;99.90;;;;;;4425880;32;20541;-69
2022/04/22 06:13:50;;;;;;;0.60;0.60;;;8.90;99.90;;;;;;4421323;32;20073;-68
2022/04/22 06:16:15;;;;;;;0.70;0.70;;;9.00;99.90;;;;;;4430725;32;20484;-68
2022/04/22 06:18:41;;;;;;;1.60;1.33;;;9.20;99.90;;;;;;4428030;32;20085;-68
2022/04/22 06:21:06;;;;;;;0.60;0.60;;;9.20;99.90;;;;;;4429864;32;20081;-68
2022/04/22 06:23:31;;;;;;;2.45;0.82;;;9.30;99.90;;;;;;4431602;32;20080;-68
2022/04/22 06:25:57;;;;;;;0.68;0.68;;;9.20;99.90;;;;;;4429867;32;20077;-68
2022/04/22 06:28:22;;;;;;;1.02;1.00;;;9.30;99.90;;;;;;4433874;32;20093;-68
2022/04/22 06:30:48;;;;;;;1.95;0.85;;;9.30;99.90;;;;;;4433883;32;20387;-68
2022/04/22 06:33:16;;;;;;;0.40;0.40;;;9.40;99.90;;;;;;4429089;32;20566;-69
2022/04/22 06:35:41;;;;;;;0.62;0.62;;;9.50;99.90;;;;;;4432369;32;20073;-68
2022/04/22 06:38:08;;;;;;;2.83;0.82;;;9.60;99.90;;;;;;4429203;32;20544;-68
2022/04/22 06:45:50;;;;;;;0.73;0.73;;;9.80;99.90;;;;;;4421205;32;20072;-68
2022/04/22 06:46:05;;;;;;;12.55;0.70;;;9.80;99.90;;;;;;4421352;32;20073;-68
2022/04/22 06:48:33;;;;;;;1.33;0.98;;;9.90;99.90;;;;;;4428192;32;20117;-68
2022/04/22 06:51:00;;;;;;;0.50;0.50;;;9.90;99.90;;;;;;4432586;32;20126;-68
2022/04/22 06:53:26;;;;;;;0.68;0.65;;;9.90;99.90;;;;;;4430966;32;20069;-68
2022/04/22 06:55:53;;;;;;;0.40;0.40;;;10.00;99.90;;;;;;4431007;32;20123;-68
2022/04/22 06:58:20;;;;;;;0.90;0.90;;;10.10;99.90;;;;;;4429588;32;20962;-68
2022/04/22 07:00:47;;;;;;;0.82;0.68;;;10.10;99.90;;;;;;4431500;32;20120;-68
2022/04/22 07:03:16;;;;;;;4.20;1.48;;;10.10;99.90;;;;;;4431174;32;20486;-68
2022/04/22 07:05:43;;;;;;;2.05;1.62;;;10.10;99.90;;;;;;4432286;32;20112;-68
2022/04/22 07:08:13;;;;;;;1.52;1.17;;;10.10;99.90;;;;;;4428416;32;20120;-68
2022/04/22 07:10:40;;;;;;;0.50;0.50;;;10.20;99.90;;;;;;4430177;32;20501;-68
2022/04/22 07:13:06;;;;;;;1.23;0.95;;;10.30;99.90;;;;;;4424282;32;20077;-68
2022/04/22 07:15:32;;;;;;;4.40;2.05;;;10.30;99.90;;;;;;4430807;32;20540;-69
2022/04/22 07:17:58;;;;;;;0.50;0.50;;;10.30;99.90;;;;;;4431844;32;20070;-68
2022/04/22 07:20:24;;;;;;;3.17;0.60;;;10.40;99.90;;;;;;4429331;32;20119;-70
2022/04/22 07:22:50;;;;;;;2.72;1.05;;;10.50;99.90;;;;;;4429472;32;20588;-68
2022/04/22 07:25:16;;;;;;;0.50;0.50;;;10.50;99.90;;;;;;4428422;32;20073;-69
2022/04/22 07:27:44;;;;;;;1.33;1.23;;;10.50;99.90;;;;;;4436834;32;20160;-69
2022/04/22 07:30:11;;;;;;;3.90;0.60;;;10.60;99.90;;;;;;4425099;32;20102;-68
2022/04/22 07:32:38;;;;;;;0.60;0.60;;;10.70;99.90;;;;;;4428309;32;20076;-68
2022/04/22 07:35:11;;;;;;;7.12;0.98;;;10.80;99.90;;;;;;4424002;32;289027;-68
2022/04/22 07:37:39;;;;;;;9.48;0.82;;;10.90;99.90;;;;;;4432177;32;20073;-68
2022/04/22 07:40:05;;;;;;;0.52;0.52;;;11.10;99.90;;;;;;4430144;32;20077;-68
2022/04/22 07:42:33;;;;;;;0.50;0.50;;;11.10;99.90;;;;;;4419482;32;21179;-68
2022/04/22 07:47:08;;;;;;;0.70;0.70;;;11.10;99.90;;;;;;4433068;32;20085;-68
2022/04/22 07:47:47;;;;;;;0.62;0.62;;;11.30;99.90;;;;;;4426007;32;20544;-68
2022/04/22 07:50:14;;;;;;;0.57;0.57;;;11.50;99.90;;;;;;4424544;32;20061;-68
2022/04/22 07:52:42;;;;;;;0.70;0.70;;;11.60;99.90;;;;;;4433442;32;20056;-69
2022/04/22 07:55:08;;;;;;;3.08;1.08;;;11.60;99.90;;;;;;4431351;32;20057;-68
2022/04/22 07:57:33;;;;;;;0.70;0.70;;;11.60;99.90;;;;;;4432192;32;20582;-69
2022/04/22 07:59:59;;;;;;;0.98;0.88;;;11.60;99.90;;;;;;4432153;32;20102;-68
2022/04/22 08:02:24;;;;;;;1.25;0.88;;;11.60;99.90;;;;;;4430413;32;20411;-68
2022/04/22 08:04:51;;;;;;;0.82;0.82;;;11.70;99.90;;;;;;4431695;32;20111;-68
2022/04/22 08:07:18;;;;;;;1.60;1.05;;;11.70;99.90;;;;;;4431631;32;20524;-69
2022/04/22 08:09:45;;;;;;;0.50;0.50;;;11.70;99.90;;;;;;4429882;32;20078;-69
2022/04/22 08:12:12;;;;;;;1.08;0.85;;;11.80;99.90;;;;;;4422943;32;20045;-68
2022/04/22 08:14:38;;;;;;;0.62;0.62;;;11.80;99.90;;;;;;4426214;32;20101;-68
2022/04/22 08:17:04;;;;;;;0.50;0.50;;;11.70;99.90;;;;;;4430830;32;20200;-68
2022/04/22 08:19:30;;;;;;;5.40;1.70;;;11.70;99.90;;;;;;4432194;32;20101;-68
2022/04/22 08:21:56;;;;;;;4.60;1.50;;;11.60;99.90;;;;;;4430942;32;20077;-69
2022/04/22 08:24:22;;;;;;;0.57;0.57;;;11.60;99.90;;;;;;4429841;32;20123;-68
2022/04/22 08:26:49;;;;;;;1.12;1.02;;;11.50;99.90;;;;;;4427346;32;20089;-68
2022/04/22 08:29:14;;;;;;;5.50;1.50;;;11.60;99.90;;;;;;4428011;32;20062;-68
2022/04/22 08:31:40;;;;;;;0.70;0.70;;;11.60;99.90;;;;;;4429479;32;20061;-68
2022/04/22 08:34:05;;;;;;;0.90;0.80;;;11.60;99.90;;;;;;4430509;32;20185;-68
2022/04/22 08:36:31;;;;;;;45.10;2.03;;;11.50;99.90;;;;;;4429612;32;20065;-68
2022/04/22 08:38:57;;;;;;;5.43;1.48;;;11.60;99.90;;;;;;4431607;32;20064;-68
2022/04/22 08:41:23;;;;;;;1.77;1.30;;;11.70;99.90;;;;;;4427580;32;20711;-68
2022/04/22 08:43:51;;;;;;;2.58;1.00;;;11.90;99.90;;;;;;4422722;32;20086;-68
2022/04/22 08:50:03;;;;;;;0.95;0.82;;;12.20;99.90;;;;;;4425598;32;20450;-68
2022/04/22 08:51:49;;;;;;;1.65;1.17;;;12.40;99.90;;;;;;4428296;32;20120;-69
2022/04/22 08:54:16;;;;;;;2.67;1.45;;;12.60;99.90;;;;;;4425053;32;20057;-68
2022/04/22 08:56:43;;;;;;;1.00;0.85;;;12.70;99.90;;;;;;4429499;32;20065;-68
2022/04/22 08:59:09;;;;;;;2.40;1.17;;;12.80;99.90;;;;;;4427668;32;20077;-68
2022/04/22 09:01:37;;;;;;;2.10;0.80;;;12.70;99.90;;;;;;4427142;32;20497;-68
2022/04/22 09:04:03;;;;;;;0.82;0.77;;;12.80;99.90;;;;;;4430214;32;20526;-69
2022/04/22 09:06:29;;;;;;;2.60;1.30;;;12.80;99.90;;;;;;4428973;32;20143;-68
2022/04/22 09:08:57;;;;;;;0.70;0.70;;;12.80;99.90;;;;;;4430021;32;20085;-69
2022/04/22 09:11:23;;;;;;;1.37;1.27;;;12.90;99.90;;;;;;4428593;32;20099;-68
2022/04/22 09:13:48;;;;;;;1.37;0.80;;;12.90;99.90;;;;;;4423254;32;20123;-68
2022/04/22 09:16:22;;;;;;;0.77;0.77;;;13.00;99.90;;;;;;4428625;32;20101;-68
2022/04/22 09:18:57;;;;;;;2.95;1.52;;;13.10;99.90;;;;;;4429115;32;20505;-68
2022/04/22 09:21:24;;;;;;;0.80;0.80;;;12.90;99.90;;;;;;4431524;32;20094;-68
2022/04/22 09:23:50;;;;;;;2.50;0.93;;;13.00;99.90;;;;;;4426578;32;20450;-69
2022/04/22 09:26:25;;;;;;;0.60;0.60;;;13.20;99.90;;;;;;4429066;32;20068;-68
2022/04/22 09:29:10;;;;;;;2.83;1.45;;;13.20;99.90;;;;;;4428722;32;20551;-68
2022/04/22 09:31:51;;;;;;;2.08;1.08;;;13.50;99.90;;;;;;4425751;32;20102;-68
2022/04/22 09:34:33;;;;;;;2.15;0.88;;;13.70;99.90;;;;;;4424993;32;20073;-68
2022/04/22 09:42:43;;;;;;;0.60;0.60;;;13.80;99.90;;;;;;4412944;32;20124;-68
2022/04/22 09:42:54;;;;;;;0.60;0.60;;;14.00;99.90;;;;;;4414976;32;20085;-68
2022/04/22 09:45:21;;;;;;;18.23;1.37;;;13.90;99.90;;;;;;4433624;32;20081;-69
2022/04/22 09:48:10;;;;;;;0.88;0.85;;;13.90;99.90;;;;;;4430685;32;20145;-68
2022/04/22 09:50:45;;;;;;;3.03;1.15;;;13.70;99.90;;;;;;4428999;32;20077;-68
2022/04/22 09:53:12;;;;;;;7.20;2.12;;;13.80;99.90;;;;;;4429731;32;20156;-69
2022/04/22 09:55:55;;;;;;;1.37;0.88;;;13.70;99.90;;;;;;4429966;32;20069;-68
2022/04/22 09:58:22;;;;;;;4.30;1.48;;;13.50;99.90;;;;;;4432207;32;20098;-69
2022/04/22 10:00:59;;;;;;;3.95;1.00;;;13.30;99.90;;;;;;4428529;32;20476;-68
2022/04/22 10:03:27;;;;;;;1.15;1.05;;;13.30;99.90;;;;;;4429823;32;20060;-68
2022/04/22 10:05:53;;;;;;;3.20;1.48;;;13.20;99.90;;;;;;4432495;32;20401;-68
2022/04/22 10:08:20;;;;;;;1.05;0.80;;;13.30;99.90;;;;;;4432087;32;20065;-68
2022/04/22 10:10:47;;;;;;;1.48;1.10;;;13.30;99.90;;;;;;4434324;32;20081;-68
2022/04/22 10:13:16;;;;;;;1.17;1.08;;;13.40;99.90;;;;;;4422806;32;20567;-68
2022/04/22 10:15:44;;;;;;;1.60;1.10;;;13.50;99.90;;;;;;4432657;32;20074;-68
2022/04/22 10:18:13;;;;;;;3.15;1.42;;;13.50;99.90;;;;;;4430302;32;20110;-68
2022/04/22 10:20:40;;;;;;;5.10;1.60;;;13.50;99.90;;;;;;4430832;32;20422;-68
2022/04/22 10:23:06;;;;;;;1.37;0.90;;;13.40;99.90;;;;;;4429915;32;20111;-68
2022/04/22 10:25:32;;;;;;;1.48;1.33;;;13.20;99.90;;;;;;4431989;32;20378;-68
2022/04/22 10:28:01;;;;;;;1.65;1.27;;;13.10;99.90;;;;;;4430326;32;20141;-68
2022/04/22 10:30:29;;;;;;;1.45;1.10;;;13.10;99.90;;;;;;4433411;32;20436;-68
2022/04/22 10:32:56;;;;;;;1.10;0.80;;;13.10;99.90;;;;;;4431051;32;20077;-69
2022/04/22 10:35:23;;;;;;;0.70;0.70;;;13.10;99.90;;;;;;4433441;32;20093;-68
2022/04/22 10:37:50;;;;;;;1.23;1.15;;;13.00;99.90;;;;;;4432503;32;20131;-68
2022/04/22 10:40:18;;;;;;;0.88;0.85;;;13.10;99.90;;;;;;4432394;32;20065;-68
2022/04/22 10:42:44;;;;;;;3.12;1.08;;;13.00;99.90;;;;;;4425614;32;20548;-68
2022/04/22 10:47:13;;;;;;;1.37;1.10;;;12.90;99.90;;;;;;4431410;32;20081;-68
2022/04/22 10:47:56;;;;;;;1.35;1.17;;;12.80;99.90;;;;;;4432136;32;20517;-68
2022/04/22 10:50:29;;;;;;;1.25;1.08;;;12.80;99.90;;;;;;4431167;32;20087;-68
2022/04/22 10:53:05;;;;;;;8.40;3.30;;;12.70;99.90;;;;;;4430929;32;20588;-68
2022/04/22 10:55:40;;;;;;;0.73;0.73;;;12.60;99.90;;;;;;4434098;32;20090;-68
2022/04/22 10:58:15;;;;;;;1.30;1.17;;;12.60;99.90;;;;;;4429559;32;20086;-68
2022/04/22 11:00:45;;;;;;;3.15;1.58;;;12.60;99.90;;;;;;4432750;32;20042;-68
2022/04/22 11:03:13;;;;;;;8.00;2.20;;;12.60;99.90;;;;;;4429071;32;20426;-69
2022/04/22 11:05:57;;;;;;;0.93;0.90;;;12.60;99.90;;;;;;4431123;32;20081;-68
2022/04/22 11:08:39;;;;;;;3.50;2.05;;;12.60;99.90;;;;;;4428978;32;20077;-68
2022/04/22 11:11:08;;;;;;;2.00;1.33;;;12.60;99.90;;;;;;4427837;32;20081;-68
2022/04/22 11:13:40;;;;;;;0.75;0.75;;;12.60;99.90;;;;;;4419984;32;20074;-68
2022/04/22 11:16:26;;;;;;;1.65;1.12;;;12.50;99.90;;;;;;4430779;32;20112;-68
2022/04/22 11:19:24;;;;;;;0.90;0.90;;;12.50;99.90;;;;;;4431933;32;20057;-68
2022/04/22 11:21:55;;;;;;;3.62;1.50;;;12.50;99.90;;;;;;4419851;32;20084;-68
2022/04/22 11:24:25;;;;;;;6.43;1.67;;;12.50;99.90;;;;;;4424487;32;20073;-68
2022/04/22 11:26:52;;;;;;;1.85;0.90;;;12.40;99.90;;;;;;4426169;32;20120;-68
2022/04/22 11:29:18;;;;;;;4.50;1.17;;;12.40;99.90;;;;;;4431825;32;20058;-68
2022/04/22 11:31:56;;;;;;;2.65;1.30;;;12.30;99.90;;;;;;4431485;32;20101;-68
2022/04/22 11:34:46;;;;;;;8.65;1.27;;;12.30;99.90;;;;;;4433331;32;20060;-68
2022/04/22 11:37:20;;;;;;;1.95;1.33;;;12.30;99.90;;;;;;4430693;32;20080;-68
2022/04/22 11:39:47;;;;;;;3.87;2.10;;;12.30;99.90;;;;;;4429153;32;20398;-68
2022/04/22 11:42:15;;;;;;;1.42;1.35;;;12.30;99.90;;;;;;4423664;32;20077;-67
2022/04/22 11:44:41;;;;;;;7.40;1.55;;;12.20;99.90;;;;;;4431515;32;20561;-68
2022/04/22 11:47:07;;;;;;;11.93;2.10;;;12.20;99.90;;;;;;4429839;32;20077;-68
2022/04/22 11:49:32;;;;;;;2.20;1.23;;;12.30;99.90;;;;;;4428890;32;20164;-68
2022/04/22 11:52:00;;;;;;;2.08;1.27;;;12.40;99.90;;;;;;4431467;32;20068;-68
2022/04/22 11:54:26;;;;;;;1.87;1.25;;;12.50;99.90;;;;;;4429929;32;20073;-68
2022/04/22 11:56:52;;;;;;;2.75;1.40;;;12.50;99.90;;;;;;4431900;32;20509;-68
2022/04/22 11:59:22;;;;;;;1.70;1.25;;;12.50;99.90;;;;;;4431506;32;20077;-68
2022/04/22 12:05:33;;;;;;;4.57;1.33;;;12.50;99.90;;;;;;4433703;32;20561;-71
2022/04/22 12:08:18;;;;;;;3.65;2.15;;;12.50;99.90;;;;;;4426344;32;20074;-67
2022/04/22 12:10:06;;;;;;;3.90;1.67;;;12.50;99.90;;;;;;4431709;32;20077;-68
2022/04/22 12:12:31;;;;;;;5.45;1.55;;;12.50;99.90;;;;;;4419168;32;20500;-69
2022/04/22 12:15:03;;;;;;;3.75;2.25;;;12.60;99.90;;;;;;4431154;32;20536;-68
2022/04/22 12:17:29;;;;;;;0.95;0.93;;;12.60;99.90;;;;;;4431935;32;20081;-68
2022/04/22 12:19:55;;;;;;;1.33;1.23;;;12.70;99.90;;;;;;4428689;32;20071;-68
2022/04/22 12:22:21;;;;;;;2.10;1.10;;;12.60;99.90;;;;;;4428748;32;20081;-68
2022/04/22 12:25:16;;;;;;;6.15;1.62;;;12.60;99.90;;;;;;4430303;32;20540;-68
2022/04/22 12:27:42;;;;;;;1.95;1.45;;;12.60;99.90;;;;;;4421048;32;20082;-68
2022/04/22 12:30:10;;;;;;;2.47;1.37;;;12.60;99.90;;;;;;4429248;32;20658;-68
2022/04/22 12:32:39;;;;;;;1.90;1.42;;;12.70;99.90;;;;;;4433507;32;20112;-68
2022/04/22 12:35:20;;;;;;;2.90;1.30;;;12.80;99.90;;;;;;4429171;32;20090;-69
2022/04/22 12:37:46;;;;;;;;;;;12.90;99.90;;;;;;4428831;32;20193;-68
2022/04/22 12:40:14;;;;;;;4.47;1.48;;;13.00;99.90;;;;;;4429037;32;20352;-68
2022/04/22 12:42:39;;;;;;;2.03;1.10;;;13.10;99.90;;;;;;4419936;32;20157;-68
2022/04/22 12:52:24;;;;;;;2.25;1.15;;;13.00;99.90;;;;;;4429294;32;20093;-69
2022/04/22 12:54:09;;;;;;;1.85;1.08;;;13.10;99.90;;;;;;4425456;32;20125;-68
2022/04/22 12:56:35;;;;;;;1.42;1.33;;;13.20;99.90;;;;;;4431007;32;20057;-68
2022/04/22 12:59:03;;;;;;;4.20;1.17;;;13.20;99.90;;;;;;4429088;32;20076;-68
2022/04/22 13:01:49;;;;;;;4.10;1.80;;;13.30;99.90;;;;;;4432183;32;20092;-68
2022/04/22 13:04:23;;;;;;;1.27;1.17;;;13.50;99.90;;;;;;4429472;32;20466;-68
2022/04/22 13:06:49;;;;;;;1.92;1.05;;;13.80;99.90;;;;;;4432075;32;20069;-68
2022/04/22 13:09:18;;;;;;;5.25;1.67;;;14.00;99.90;;;;;;4429670;32;20061;-68
2022/04/22 13:11:44;;;;;;;2.95;1.00;;;14.30;99.90;;;;;;4427307;32;21107;-68
2022/04/22 13:14:12;;;;;;;1.92;1.50;;;14.50;99.90;;;;;;4424127;32;20441;-69
2022/04/22 13:16:37;;;;;;;1.55;1.40;;;14.50;99.90;;;;;;4431240;32;20061;-68
2022/04/22 13:19:03;;;;;;;1.80;1.23;;;14.60;99.90;;;;;;4428587;32;20082;-68
2022/04/22 13:21:29;;;;;;;4.22;1.50;;;14.80;99.90;;;;;;4428457;32;20069;-68
2022/04/22 13:23:55;;;;;;;2.00;1.12;;;14.80;99.90;;;;;;4426820;32;20101;-68
2022/04/22 13:26:22;;;;;;;1.58;0.90;;;14.80;99.90;;;;;;4429101;32;20069;-68
2022/04/22 13:28:48;;;;;;;2.03;0.90;;;14.90;99.90;;;;;;4427869;32;20382;-68
2022/04/22 13:31:13;;;;;;;1.05;0.80;;;14.90;99.90;;;;;;4431360;32;20084;-68